sensor_id;sensor_type;location;lat;lon;timestamp;temperature;humidity
76040;SHT30;64736;50.462;4.850;2023-04-03T00:01:38;2.48;84.91
76040;SHT30;64736;50.462;4.850;2023-04-03T00:04:05;2.45;84.89
76040;SHT30;64736;50.462;4.850;2023-04-03T00:06:31;2.25;85.11
76040;SHT30;64736;50.462;4.850;2023-04-03T00:08:57;2.26;85.37
76040;SHT30;64736;50.462;4.850;2023-04-03T00:11:23;2.41;85.21
76040;SHT30;64736;50.462;4.850;2023-04-03T00:13:49;2.22;85.30
76040;SHT30;64736;50.462;4.850;2023-04-03T00:16:15;2.32;84.92
76040;SHT30;64736;50.462;4.850;2023-04-03T00:18:41;2.18;85.27
76040;SHT30;64736;50.462;4.850;2023-04-03T00:21:08;2.32;85.29
76040;SHT30;64736;50.462;4.850;2023-04-03T00:23:35;2.18;85.07
76040;SHT30;64736;50.462;4.850;2023-04-03T00:26:01;2.24;85.67
76040;SHT30;64736;50.462;4.850;2023-04-03T00:28:27;2.17;85.51
76040;SHT30;64736;50.462;4.850;2023-04-03T00:30:53;2.28;85.33
76040;SHT30;64736;50.462;4.850;2023-04-03T00:33:19;2.21;85.52
76040;SHT30;64736;50.462;4.850;2023-04-03T00:35:48;2.20;85.27
76040;SHT30;64736;50.462;4.850;2023-04-03T00:38:14;2.17;85.48
76040;SHT30;64736;50.462;4.850;2023-04-03T00:40:47;2.15;85.24
76040;SHT30;64736;50.462;4.850;2023-04-03T00:45:48;2.07;85.43
76040;SHT30;64736;50.462;4.850;2023-04-03T00:51:23;2.03;85.84
76040;SHT30;64736;50.462;4.850;2023-04-03T00:54:01;1.88;85.93
76040;SHT30;64736;50.462;4.850;2023-04-03T00:56:29;1.87;86.33
76040;SHT30;64736;50.462;4.850;2023-04-03T00:58:59;1.71;86.45
76040;SHT30;64736;50.462;4.850;2023-04-03T01:01:28;1.71;86.88
76040;SHT30;64736;50.462;4.850;2023-04-03T01:03:54;1.67;87.01
76040;SHT30;64736;50.462;4.850;2023-04-03T01:06:24;1.68;86.80
76040;SHT30;64736;50.462;4.850;2023-04-03T01:08:52;1.62;86.68
76040;SHT30;64736;50.462;4.850;2023-04-03T01:11:18;1.63;86.81
76040;SHT30;64736;50.462;4.850;2023-04-03T01:13:46;1.63;87.02
76040;SHT30;64736;50.462;4.850;2023-04-03T01:16:12;1.62;87.37
76040;SHT30;64736;50.462;4.850;2023-04-03T01:18:39;1.57;87.38
76040;SHT30;64736;50.462;4.850;2023-04-03T01:24:32;1.68;87.48
76040;SHT30;64736;50.462;4.850;2023-04-03T01:27:00;1.71;87.77
76040;SHT30;64736;50.462;4.850;2023-04-03T01:29:27;1.75;87.86
76040;SHT30;64736;50.462;4.850;2023-04-03T01:31:57;1.84;88.01
76040;SHT30;64736;50.462;4.850;2023-04-03T01:34:24;1.94;87.84
76040;SHT30;64736;50.462;4.850;2023-04-03T01:36:50;2.08;87.28
76040;SHT30;64736;50.462;4.850;2023-04-03T01:39:17;2.01;86.79
76040;SHT30;64736;50.462;4.850;2023-04-03T01:41:42;2.18;84.09
76040;SHT30;64736;50.462;4.850;2023-04-03T01:44:09;2.36;84.14
76040;SHT30;64736;50.462;4.850;2023-04-03T01:46:35;2.56;84.55
76040;SHT30;64736;50.462;4.850;2023-04-03T01:49:01;2.73;84.46
76040;SHT30;64736;50.462;4.850;2023-04-03T01:51:27;2.48;85.19
76040;SHT30;64736;50.462;4.850;2023-04-03T01:53:53;2.38;82.81
76040;SHT30;64736;50.462;4.850;2023-04-03T01:56:18;2.43;82.76
76040;SHT30;64736;50.462;4.850;2023-04-03T01:58:45;2.29;83.21
76040;SHT30;64736;50.462;4.850;2023-04-03T02:01:11;2.20;83.76
76040;SHT30;64736;50.462;4.850;2023-04-03T02:03:37;2.03;84.52
76040;SHT30;64736;50.462;4.850;2023-04-03T02:06:02;1.85;85.46
76040;SHT30;64736;50.462;4.850;2023-04-03T02:08:28;1.91;86.28
76040;SHT30;64736;50.462;4.850;2023-04-03T02:10:54;1.98;85.25
76040;SHT30;64736;50.462;4.850;2023-04-03T02:13:20;2.07;85.22
76040;SHT30;64736;50.462;4.850;2023-04-03T02:15:45;2.05;85.17
76040;SHT30;64736;50.462;4.850;2023-04-03T02:18:12;2.05;85.30
76040;SHT30;64736;50.462;4.850;2023-04-03T02:20:37;2.00;85.37
76040;SHT30;64736;50.462;4.850;2023-04-03T02:23:04;1.90;85.49
76040;SHT30;64736;50.462;4.850;2023-04-03T02:25:32;1.85;85.71
76040;SHT30;64736;50.462;4.850;2023-04-03T02:27:58;1.88;85.56
76040;SHT30;64736;50.462;4.850;2023-04-03T02:30:23;1.81;85.82
76040;SHT30;64736;50.462;4.850;2023-04-03T02:32:49;1.78;86.03
76040;SHT30;64736;50.462;4.850;2023-04-03T02:35:15;1.64;86.09
76040;SHT30;64736;50.462;4.850;2023-04-03T02:37:41;1.63;86.74
76040;SHT30;64736;50.462;4.850;2023-04-03T02:40:07;1.59;86.60
76040;SHT30;64736;50.462;4.850;2023-04-03T02:42:33;1.60;86.73
76040;SHT30;64736;50.462;4.850;2023-04-03T02:44:59;1.56;86.99
76040;SHT30;64736;50.462;4.850;2023-04-03T02:47:28;1.55;87.09
76040;SHT30;64736;50.462;4.850;2023-04-03T02:49:54;1.50;87.31
76040;SHT30;64736;50.462;4.850;2023-04-03T02:52:20;1.28;87.14
76040;SHT30;64736;50.462;4.850;2023-04-03T02:54:46;1.49;87.33
76040;SHT30;64736;50.462;4.850;2023-04-03T02:57:12;1.47;87.23
76040;SHT30;64736;50.462;4.850;2023-04-03T02:59:38;1.53;87.10
76040;SHT30;64736;50.462;4.850;2023-04-03T03:02:09;1.46;87.19
76040;SHT30;64736;50.462;4.850;2023-04-03T03:04:35;1.50;87.20
76040;SHT30;64736;50.462;4.850;2023-04-03T03:07:01;1.49;87.02
76040;SHT30;64736;50.462;4.850;2023-04-03T03:09:27;1.46;87.14
76040;SHT30;64736;50.462;4.850;2023-04-03T03:11:53;1.46;86.93
76040;SHT30;64736;50.462;4.850;2023-04-03T03:14:18;1.36;87.18
76040;SHT30;64736;50.462;4.850;2023-04-03T03:16:44;1.32;87.52
76040;SHT30;64736;50.462;4.850;2023-04-03T03:19:10;1.15;87.64
76040;SHT30;64736;50.462;4.850;2023-04-03T03:21:36;1.18;88.00
76040;SHT30;64736;50.462;4.850;2023-04-03T03:24:02;0.95;88.35
76040;SHT30;64736;50.462;4.850;2023-04-03T03:26:28;0.99;88.61
76040;SHT30;64736;50.462;4.850;2023-04-03T03:29:21;0.88;88.30
76040;SHT30;64736;50.462;4.850;2023-04-03T03:31:46;0.99;88.64
76040;SHT30;64736;50.462;4.850;2023-04-03T03:34:12;1.12;88.34
76040;SHT30;64736;50.462;4.850;2023-04-03T03:36:38;1.07;88.34
76040;SHT30;64736;50.462;4.850;2023-04-03T03:39:04;0.83;88.42
76040;SHT30;64736;50.462;4.850;2023-04-03T03:41:30;0.85;88.38
76040;SHT30;64736;50.462;4.850;2023-04-03T03:43:56;1.09;88.19
76040;SHT30;64736;50.462;4.850;2023-04-03T03:46:22;1.19;87.47
76040;SHT30;64736;50.462;4.850;2023-04-03T03:48:48;1.19;87.41
76040;SHT30;64736;50.462;4.850;2023-04-03T03:51:14;1.12;87.46
76040;SHT30;64736;50.462;4.850;2023-04-03T03:53:39;0.85;87.73
76040;SHT30;64736;50.462;4.850;2023-04-03T03:56:06;0.83;88.31
76040;SHT30;64736;50.462;4.850;2023-04-03T03:58:32;0.78;88.47
76040;SHT30;64736;50.462;4.850;2023-04-03T04:01:05;0.77;88.69
76040;SHT30;64736;50.462;4.850;2023-04-03T04:03:32;0.78;88.82
76040;SHT30;64736;50.462;4.850;2023-04-03T04:05:58;0.84;88.90
76040;SHT30;64736;50.462;4.850;2023-04-03T04:08:24;1.09;88.44
76040;SHT30;64736;50.462;4.850;2023-04-03T04:10:50;1.05;87.70
76040;SHT30;64736;50.462;4.850;2023-04-03T04:13:16;1.12;87.18
76040;SHT30;64736;50.462;4.850;2023-04-03T04:15:42;0.87;87.74
76040;SHT30;64736;50.462;4.850;2023-04-03T04:18:08;0.85;87.98
76040;SHT30;64736;50.462;4.850;2023-04-03T04:20:34;0.91;88.31
76040;SHT30;64736;50.462;4.850;2023-04-03T04:23:00;0.89;88.39
76040;SHT30;64736;50.462;4.850;2023-04-03T04:25:26;0.97;88.10
76040;SHT30;64736;50.462;4.850;2023-04-03T04:27:51;0.74;88.22
76040;SHT30;64736;50.462;4.850;2023-04-03T04:30:17;0.70;88.56
76040;SHT30;64736;50.462;4.850;2023-04-03T04:32:43;0.83;88.69
76040;SHT30;64736;50.462;4.850;2023-04-03T04:35:09;0.64;88.54
76040;SHT30;64736;50.462;4.850;2023-04-03T04:37:35;0.54;89.13
76040;SHT30;64736;50.462;4.850;2023-04-03T04:40:01;0.61;89.24
76040;SHT30;64736;50.462;4.850;2023-04-03T04:42:27;0.80;89.07
76040;SHT30;64736;50.462;4.850;2023-04-03T04:44:53;0.83;88.49
76040;SHT30;64736;50.462;4.850;2023-04-03T04:47:18;0.94;88.37
76040;SHT30;64736;50.462;4.850;2023-04-03T04:49:44;0.66;89.08
76040;SHT30;64736;50.462;4.850;2023-04-03T04:52:10;0.64;89.15
76040;SHT30;64736;50.462;4.850;2023-04-03T04:54:36;0.53;89.34
76040;SHT30;64736;50.462;4.850;2023-04-03T04:57:02;0.46;89.57
76040;SHT30;64736;50.462;4.850;2023-04-03T04:59:27;0.56;89.79
76040;SHT30;64736;50.462;4.850;2023-04-03T05:01:53;0.53;89.57
76040;SHT30;64736;50.462;4.850;2023-04-03T05:04:20;0.88;88.79
76040;SHT30;64736;50.462;4.850;2023-04-03T05:06:46;0.78;88.51
76040;SHT30;64736;50.462;4.850;2023-04-03T05:09:12;0.78;88.33
76040;SHT30;64736;50.462;4.850;2023-04-03T05:11:38;0.60;88.92
76040;SHT30;64736;50.462;4.850;2023-04-03T05:14:03;0.68;88.76
76040;SHT30;64736;50.462;4.850;2023-04-03T05:16:32;0.59;88.70
76040;SHT30;64736;50.462;4.850;2023-04-03T05:18:59;0.53;88.81
76040;SHT30;64736;50.462;4.850;2023-04-03T05:21:25;0.56;89.14
76040;SHT30;64736;50.462;4.850;2023-04-03T05:23:51;0.70;88.69
76040;SHT30;64736;50.462;4.850;2023-04-03T05:26:17;0.70;88.23
76040;SHT30;64736;50.462;4.850;2023-04-03T05:28:43;0.70;88.45
76040;SHT30;64736;50.462;4.850;2023-04-03T05:31:09;0.78;87.92
76040;SHT30;64736;50.462;4.850;2023-04-03T05:33:35;0.60;88.09
76040;SHT30;64736;50.462;4.850;2023-04-03T05:36:04;0.63;88.42
76040;SHT30;64736;50.462;4.850;2023-04-03T05:38:31;0.57;88.50
76040;SHT30;64736;50.462;4.850;2023-04-03T05:40:57;0.68;88.04
76040;SHT30;64736;50.462;4.850;2023-04-03T05:43:23;0.52;88.05
76040;SHT30;64736;50.462;4.850;2023-04-03T05:45:48;0.63;88.54
76040;SHT30;64736;50.462;4.850;2023-04-03T05:48:14;0.76;87.82
76040;SHT30;64736;50.462;4.850;2023-04-03T05:50:41;0.78;87.71
76040;SHT30;64736;50.462;4.850;2023-04-03T05:53:16;0.68;87.78
76040;SHT30;64736;50.462;4.850;2023-04-03T05:55:44;0.84;87.85
76040;SHT30;64736;50.462;4.850;2023-04-03T05:58:10;0.89;87.24
76040;SHT30;64736;50.462;4.850;2023-04-03T06:00:36;0.85;87.46
76040;SHT30;64736;50.462;4.850;2023-04-03T06:03:02;0.88;86.99
76040;SHT30;64736;50.462;4.850;2023-04-03T06:05:27;1.01;86.25
76040;SHT30;64736;50.462;4.850;2023-04-03T06:07:54;1.28;84.61
76040;SHT30;64736;50.462;4.850;2023-04-03T06:10:19;1.15;84.68
76040;SHT30;64736;50.462;4.850;2023-04-03T06:12:45;1.28;84.76
76040;SHT30;64736;50.462;4.850;2023-04-03T06:15:11;1.39;84.43
76040;SHT30;64736;50.462;4.850;2023-04-03T06:17:37;1.36;84.72
76040;SHT30;64736;50.462;4.850;2023-04-03T06:20:04;1.29;84.99
76040;SHT30;64736;50.462;4.850;2023-04-03T06:22:30;1.14;85.91
76040;SHT30;64736;50.462;4.850;2023-04-03T06:24:57;1.19;86.27
76040;SHT30;64736;50.462;4.850;2023-04-03T06:27:23;1.46;83.93
76040;SHT30;64736;50.462;4.850;2023-04-03T06:29:48;1.38;84.26
76040;SHT30;64736;50.462;4.850;2023-04-03T06:32:15;1.47;83.51
76040;SHT30;64736;50.462;4.850;2023-04-03T06:34:42;1.39;84.54
76040;SHT30;64736;50.462;4.850;2023-04-03T06:37:25;1.43;85.45
76040;SHT30;64736;50.462;4.850;2023-04-03T06:39:51;1.49;85.48
76040;SHT30;64736;50.462;4.850;2023-04-03T06:42:17;1.59;84.27
76040;SHT30;64736;50.462;4.850;2023-04-03T06:44:43;1.59;84.22
76040;SHT30;64736;50.462;4.850;2023-04-03T06:47:12;1.67;84.86
76040;SHT30;64736;50.462;4.850;2023-04-03T06:49:39;1.56;85.00
76040;SHT30;64736;50.462;4.850;2023-04-03T06:52:05;1.77;82.68
76040;SHT30;64736;50.462;4.850;2023-04-03T06:54:31;1.93;81.82
76040;SHT30;64736;50.462;4.850;2023-04-03T06:56:57;1.95;81.44
76040;SHT30;64736;50.462;4.850;2023-04-03T06:59:23;1.94;83.14
76040;SHT30;64736;50.462;4.850;2023-04-03T07:01:50;1.88;82.64
76040;SHT30;64736;50.462;4.850;2023-04-03T07:04:16;2.08;81.15
76040;SHT30;64736;50.462;4.850;2023-04-03T07:06:42;2.00;83.00
76040;SHT30;64736;50.462;4.850;2023-04-03T07:09:09;1.85;83.76
76040;SHT30;64736;50.462;4.850;2023-04-03T07:11:36;2.11;82.08
76040;SHT30;64736;50.462;4.850;2023-04-03T07:14:02;2.04;83.62
76040;SHT30;64736;50.462;4.850;2023-04-03T07:16:29;2.10;84.11
76040;SHT30;64736;50.462;4.850;2023-04-03T07:18:57;2.07;82.76
76040;SHT30;64736;50.462;4.850;2023-04-03T07:21:24;2.41;80.87
76040;SHT30;64736;50.462;4.850;2023-04-03T07:23:50;2.38;81.23
76040;SHT30;64736;50.462;4.850;2023-04-03T07:26:16;2.54;80.93
76040;SHT30;64736;50.462;4.850;2023-04-03T07:28:41;2.54;81.66
76040;SHT30;64736;50.462;4.850;2023-04-03T07:31:12;2.64;79.76
76040;SHT30;64736;50.462;4.850;2023-04-03T07:33:38;2.64;81.20
76040;SHT30;64736;50.462;4.850;2023-04-03T07:36:06;2.64;81.17
76040;SHT30;64736;50.462;4.850;2023-04-03T07:38:33;3.04;78.13
76040;SHT30;64736;50.462;4.850;2023-04-03T07:40:59;3.10;77.70
76040;SHT30;64736;50.462;4.850;2023-04-03T07:43:25;3.28;77.14
76040;SHT30;64736;50.462;4.850;2023-04-03T07:45:52;3.40;76.32
76040;SHT30;64736;50.462;4.850;2023-04-03T07:48:23;3.49;75.69
76040;SHT30;64736;50.462;4.850;2023-04-03T07:50:50;3.54;76.64
76040;SHT30;64736;50.462;4.850;2023-04-03T07:53:16;3.79;74.24
76040;SHT30;64736;50.462;4.850;2023-04-03T07:55:42;3.83;73.97
76040;SHT30;64736;50.462;4.850;2023-04-03T07:58:10;3.91;72.96
76040;SHT30;64736;50.462;4.850;2023-04-03T08:00:37;4.07;72.55
76040;SHT30;64736;50.462;4.850;2023-04-03T08:03:03;4.07;71.76
76040;SHT30;64736;50.462;4.850;2023-04-03T08:05:29;4.18;72.50
76040;SHT30;64736;50.462;4.850;2023-04-03T08:07:55;4.22;71.82
76040;SHT30;64736;50.462;4.850;2023-04-03T08:10:21;4.37;71.06
76040;SHT30;64736;50.462;4.850;2023-04-03T08:12:47;4.55;69.74
76040;SHT30;64736;50.462;4.850;2023-04-03T08:15:14;4.61;69.08
76040;SHT30;64736;50.462;4.850;2023-04-03T08:17:40;4.65;67.59
76040;SHT30;64736;50.462;4.850;2023-04-03T08:20:06;4.73;68.16
76040;SHT30;64736;50.462;4.850;2023-04-03T08:22:34;4.86;67.48
76040;SHT30;64736;50.462;4.850;2023-04-03T08:25:00;5.09;67.13
76040;SHT30;64736;50.462;4.850;2023-04-03T08:27:27;5.13;67.38
76040;SHT30;64736;50.462;4.850;2023-04-03T08:29:53;5.19;66.34
76040;SHT30;64736;50.462;4.850;2023-04-03T08:32:18;5.23;66.53
76040;SHT30;64736;50.462;4.850;2023-04-03T08:34:44;5.34;66.62
76040;SHT30;64736;50.462;4.850;2023-04-03T08:37:10;5.47;66.09
76040;SHT30;64736;50.462;4.850;2023-04-03T08:39:36;5.38;65.63
76040;SHT30;64736;50.462;4.850;2023-04-03T08:42:11;5.59;66.41
76040;SHT30;64736;50.462;4.850;2023-04-03T08:44:55;5.42;65.60
76040;SHT30;64736;50.462;4.850;2023-04-03T08:47:29;5.40;65.50
76040;SHT30;64736;50.462;4.850;2023-04-03T08:50:07;5.65;65.84
76040;SHT30;64736;50.462;4.850;2023-04-03T08:52:52;5.63;64.25
76040;SHT30;64736;50.462;4.850;2023-04-03T08:55:50;5.95;63.70
76040;SHT30;64736;50.462;4.850;2023-04-03T08:58:21;5.79;64.85
76040;SHT30;64736;50.462;4.850;2023-04-03T09:00:51;5.95;63.03
76040;SHT30;64736;50.462;4.850;2023-04-03T09:03:21;5.88;62.43
76040;SHT30;64736;50.462;4.850;2023-04-03T09:05:57;6.23;62.12
76040;SHT30;64736;50.462;4.850;2023-04-03T09:14:23;6.67;61.23
76040;SHT30;64736;50.462;4.850;2023-04-03T09:17:03;6.63;61.50
76040;SHT30;64736;50.462;4.850;2023-04-03T09:22:26;6.36;62.33
76040;SHT30;64736;50.462;4.850;2023-04-03T09:27:50;6.69;60.42
76040;SHT30;64736;50.462;4.850;2023-04-03T09:30:25;6.96;59.06
76040;SHT30;64736;50.462;4.850;2023-04-03T09:32:56;6.84;58.91
76040;SHT30;64736;50.462;4.850;2023-04-03T09:35:30;7.31;58.73
76040;SHT30;64736;50.462;4.850;2023-04-03T09:38:19;7.38;58.07
76040;SHT30;64736;50.462;4.850;2023-04-03T09:40:47;7.43;58.10
76040;SHT30;64736;50.462;4.850;2023-04-03T09:43:24;7.12;58.74
76040;SHT30;64736;50.462;4.850;2023-04-03T09:45:52;7.26;59.00
76040;SHT30;64736;50.462;4.850;2023-04-03T09:48:24;7.20;59.79
76040;SHT30;64736;50.462;4.850;2023-04-03T09:53:36;7.48;59.02
76040;SHT30;64736;50.462;4.850;2023-04-03T09:56:20;7.65;57.95
76040;SHT30;64736;50.462;4.850;2023-04-03T10:01:38;7.92;57.69
76040;SHT30;64736;50.462;4.850;2023-04-03T10:04:18;7.95;57.67
76040;SHT30;64736;50.462;4.850;2023-04-03T10:06:53;7.70;58.61
76040;SHT30;64736;50.462;4.850;2023-04-03T10:14:59;8.16;58.41
76040;SHT30;64736;50.462;4.850;2023-04-03T10:17:55;8.95;56.97
76040;SHT30;64736;50.462;4.850;2023-04-03T10:23:18;8.40;56.97
76040;SHT30;64736;50.462;4.850;2023-04-03T10:31:29;8.36;56.71
76040;SHT30;64736;50.462;4.850;2023-04-03T10:34:06;8.97;55.13
76040;SHT30;64736;50.462;4.850;2023-04-03T10:36:42;8.74;56.23
76040;SHT30;64736;50.462;4.850;2023-04-03T10:42:16;8.29;56.35
76040;SHT30;64736;50.462;4.850;2023-04-03T10:44:52;9.25;55.63
76040;SHT30;64736;50.462;4.850;2023-04-03T10:47:31;8.80;55.91
76040;SHT30;64736;50.462;4.850;2023-04-03T10:53:14;8.77;55.80
76040;SHT30;64736;50.462;4.850;2023-04-03T10:55:49;8.98;55.65
76040;SHT30;64736;50.462;4.850;2023-04-03T10:58:32;8.72;55.19
76040;SHT30;64736;50.462;4.850;2023-04-03T11:01:11;9.16;54.48
76040;SHT30;64736;50.462;4.850;2023-04-03T11:03:41;8.98;55.02
76040;SHT30;64736;50.462;4.850;2023-04-03T11:06:16;9.18;55.87
76040;SHT30;64736;50.462;4.850;2023-04-03T11:08:54;9.95;56.12
76040;SHT30;64736;50.462;4.850;2023-04-03T11:11:30;9.36;52.31
76040;SHT30;64736;50.462;4.850;2023-04-03T11:14:01;9.30;54.91
76040;SHT30;64736;50.462;4.850;2023-04-03T11:16:30;10.19;54.48
76040;SHT30;64736;50.462;4.850;2023-04-03T11:35:17;9.80;51.77
76040;SHT30;64736;50.462;4.850;2023-04-03T11:37:51;9.87;51.17
76040;SHT30;64736;50.462;4.850;2023-04-03T11:40:31;9.93;49.79
76040;SHT30;64736;50.462;4.850;2023-04-03T11:43:33;9.95;50.49
76040;SHT30;64736;50.462;4.850;2023-04-03T11:46:00;9.81;49.95
76040;SHT30;64736;50.462;4.850;2023-04-03T11:50:55;9.99;48.27
76040;SHT30;64736;50.462;4.850;2023-04-03T11:55:55;9.94;49.11
76040;SHT30;64736;50.462;4.850;2023-04-03T11:58:24;9.76;49.24
76040;SHT30;64736;50.462;4.850;2023-04-03T12:01:11;10.33;45.20
76040;SHT30;64736;50.462;4.850;2023-04-03T12:14:04;10.43;45.24
76040;SHT30;64736;50.462;4.850;2023-04-03T12:24:31;10.05;44.47
76040;SHT30;64736;50.462;4.850;2023-04-03T12:45:44;10.35;45.42
76040;SHT30;64736;50.462;4.850;2023-04-03T12:48:18;10.66;44.41
76040;SHT30;64736;50.462;4.850;2023-04-03T12:50:49;10.52;45.46
76040;SHT30;64736;50.462;4.850;2023-04-03T12:53:19;11.55;43.93
76040;SHT30;64736;50.462;4.850;2023-04-03T12:55:49;11.01;44.37
76040;SHT30;64736;50.462;4.850;2023-04-03T12:58:23;10.62;45.46
76040;SHT30;64736;50.462;4.850;2023-04-03T13:01:11;10.42;45.58
76040;SHT30;64736;50.462;4.850;2023-04-03T13:03:45;11.52;44.57
76040;SHT30;64736;50.462;4.850;2023-04-03T13:08:53;10.97;45.46
76040;SHT30;64736;50.462;4.850;2023-04-03T13:11:20;11.35;43.96
76040;SHT30;64736;50.462;4.850;2023-04-03T13:13:55;12.27;41.31
76040;SHT30;64736;50.462;4.850;2023-04-03T13:16:21;10.90;43.89
76040;SHT30;64736;50.462;4.850;2023-04-03T13:18:53;10.76;44.00
76040;SHT30;64736;50.462;4.850;2023-04-03T13:21:23;11.69;43.14
76040;SHT30;64736;50.462;4.850;2023-04-03T13:23:55;11.06;44.36
76040;SHT30;64736;50.462;4.850;2023-04-03T13:26:24;11.29;43.98
76040;SHT30;64736;50.462;4.850;2023-04-03T13:28:52;11.38;44.29
76040;SHT30;64736;50.462;4.850;2023-04-03T13:31:23;11.10;44.64
76040;SHT30;64736;50.462;4.850;2023-04-03T13:34:12;11.45;42.62
76040;SHT30;64736;50.462;4.850;2023-04-03T13:36:41;11.29;43.13
76040;SHT30;64736;50.462;4.850;2023-04-03T13:41:38;11.24;43.46
76040;SHT30;64736;50.462;4.850;2023-04-03T13:46:53;11.75;42.90
76040;SHT30;64736;50.462;4.850;2023-04-03T13:49:44;11.86;43.11
76040;SHT30;64736;50.462;4.850;2023-04-03T13:52:31;11.35;42.79
76040;SHT30;64736;50.462;4.850;2023-04-03T13:57:51;11.31;43.59
76040;SHT30;64736;50.462;4.850;2023-04-03T14:00:35;11.58;43.34
76040;SHT30;64736;50.462;4.850;2023-04-03T14:03:01;11.65;43.38
76040;SHT30;64736;50.462;4.850;2023-04-03T14:05:27;11.45;42.31
76040;SHT30;64736;50.462;4.850;2023-04-03T14:07:54;12.41;41.03
76040;SHT30;64736;50.462;4.850;2023-04-03T14:10:21;12.30;40.04
76040;SHT30;64736;50.462;4.850;2023-04-03T14:12:48;12.04;41.49
76040;SHT30;64736;50.462;4.850;2023-04-03T14:15:23;12.86;39.57
76040;SHT30;64736;50.462;4.850;2023-04-03T14:17:51;11.67;40.51
76040;SHT30;64736;50.462;4.850;2023-04-03T14:20:20;12.75;40.49
76040;SHT30;64736;50.462;4.850;2023-04-03T14:22:47;12.00;41.20
76040;SHT30;64736;50.462;4.850;2023-04-03T14:25:15;12.41;40.20
76040;SHT30;64736;50.462;4.850;2023-04-03T14:27:44;11.51;42.18
76040;SHT30;64736;50.462;4.850;2023-04-03T14:30:16;11.65;42.28
76040;SHT30;64736;50.462;4.850;2023-04-03T14:32:43;11.46;41.85
76040;SHT30;64736;50.462;4.850;2023-04-03T14:35:09;11.38;42.02
76040;SHT30;64736;50.462;4.850;2023-04-03T14:37:35;11.55;41.58
76040;SHT30;64736;50.462;4.850;2023-04-03T14:40:03;11.52;41.32
76040;SHT30;64736;50.462;4.850;2023-04-03T14:42:32;11.69;41.65
76040;SHT30;64736;50.462;4.850;2023-04-03T14:45:00;11.52;41.54
76040;SHT30;64736;50.462;4.850;2023-04-03T14:47:29;11.52;41.29
76040;SHT30;64736;50.462;4.850;2023-04-03T14:49:55;11.89;40.32
76040;SHT30;64736;50.462;4.850;2023-04-03T14:52:27;11.42;40.01
76040;SHT30;64736;50.462;4.850;2023-04-03T14:54:54;11.91;39.78
76040;SHT30;64736;50.462;4.850;2023-04-03T14:57:23;11.62;40.52
76040;SHT30;64736;50.462;4.850;2023-04-03T14:59:49;11.66;39.65
76040;SHT30;64736;50.462;4.850;2023-04-03T15:02:32;11.55;39.96
76040;SHT30;64736;50.462;4.850;2023-04-03T15:05:00;11.45;40.30
76040;SHT30;64736;50.462;4.850;2023-04-03T15:07:28;12.38;39.71
76040;SHT30;64736;50.462;4.850;2023-04-03T15:09:54;11.63;40.82
76040;SHT30;64736;50.462;4.850;2023-04-03T15:12:24;11.46;40.56
76040;SHT30;64736;50.462;4.850;2023-04-03T15:14:50;11.14;40.90
76040;SHT30;64736;50.462;4.850;2023-04-03T15:17:22;11.66;40.67
76040;SHT30;64736;50.462;4.850;2023-04-03T15:19:49;11.14;40.06
76040;SHT30;64736;50.462;4.850;2023-04-03T15:22:16;11.35;39.90
76040;SHT30;64736;50.462;4.850;2023-04-03T15:24:43;11.38;39.60
76040;SHT30;64736;50.462;4.850;2023-04-03T15:27:10;10.87;40.63
76040;SHT30;64736;50.462;4.850;2023-04-03T15:29:38;11.43;39.54
76040;SHT30;64736;50.462;4.850;2023-04-03T15:32:04;11.27;40.20
76040;SHT30;64736;50.462;4.850;2023-04-03T15:34:30;10.93;39.69
76040;SHT30;64736;50.462;4.850;2023-04-03T15:36:56;11.08;39.64
76040;SHT30;64736;50.462;4.850;2023-04-03T15:39:22;10.60;39.92
76040;SHT30;64736;50.462;4.850;2023-04-03T15:41:49;10.93;39.86
76040;SHT30;64736;50.462;4.850;2023-04-03T15:44:15;10.74;40.95
76040;SHT30;64736;50.462;4.850;2023-04-03T15:46:43;10.94;40.00
76040;SHT30;64736;50.462;4.850;2023-04-03T15:49:09;11.52;39.19
76040;SHT30;64736;50.462;4.850;2023-04-03T15:51:35;10.60;39.26
76040;SHT30;64736;50.462;4.850;2023-04-03T15:54:01;10.79;39.57
76040;SHT30;64736;50.462;4.850;2023-04-03T15:56:26;10.77;39.47
76040;SHT30;64736;50.462;4.850;2023-04-03T15:58:52;10.56;39.12
76040;SHT30;64736;50.462;4.850;2023-04-03T16:01:18;10.15;40.51
76040;SHT30;64736;50.462;4.850;2023-04-03T16:03:44;10.04;41.37
76040;SHT30;64736;50.462;4.850;2023-04-03T16:06:17;9.84;41.76
76040;SHT30;64736;50.462;4.850;2023-04-03T16:08:44;9.71;41.66
76040;SHT30;64736;50.462;4.850;2023-04-03T16:11:12;9.78;41.95
76040;SHT30;64736;50.462;4.850;2023-04-03T16:13:37;9.70;41.94
76040;SHT30;64736;50.462;4.850;2023-04-03T16:16:04;9.58;42.56
76040;SHT30;64736;50.462;4.850;2023-04-03T16:18:31;9.56;41.74
76040;SHT30;64736;50.462;4.850;2023-04-03T16:20:57;9.78;41.52
76040;SHT30;64736;50.462;4.850;2023-04-03T16:23:23;9.78;41.65
76040;SHT30;64736;50.462;4.850;2023-04-03T16:25:49;9.66;40.70
76040;SHT30;64736;50.462;4.850;2023-04-03T16:28:17;9.58;41.32
76040;SHT30;64736;50.462;4.850;2023-04-03T16:30:44;9.66;41.44
76040;SHT30;64736;50.462;4.850;2023-04-03T16:33:11;9.61;41.22
76040;SHT30;64736;50.462;4.850;2023-04-03T16:35:37;9.66;41.21
76040;SHT30;64736;50.462;4.850;2023-04-03T16:38:03;9.56;40.79
76040;SHT30;64736;50.462;4.850;2023-04-03T16:40:30;9.54;41.21
76040;SHT30;64736;50.462;4.850;2023-04-03T16:42:55;9.56;41.97
76040;SHT30;64736;50.462;4.850;2023-04-03T16:45:21;9.40;41.25
76040;SHT30;64736;50.462;4.850;2023-04-03T16:47:47;9.48;40.46
76040;SHT30;64736;50.462;4.850;2023-04-03T16:50:13;9.40;40.70
76040;SHT30;64736;50.462;4.850;2023-04-03T16:52:39;9.29;40.12
76040;SHT30;64736;50.462;4.850;2023-04-03T16:55:05;9.22;39.89
76040;SHT30;64736;50.462;4.850;2023-04-03T16:57:31;9.23;40.20
76040;SHT30;64736;50.462;4.850;2023-04-03T16:59:57;9.29;41.11
76040;SHT30;64736;50.462;4.850;2023-04-03T17:02:24;9.15;41.98
76040;SHT30;64736;50.462;4.850;2023-04-03T17:04:52;9.19;42.41
76040;SHT30;64736;50.462;4.850;2023-04-03T17:07:19;9.11;42.83
76040;SHT30;64736;50.462;4.850;2023-04-03T17:09:45;9.12;43.30
76040;SHT30;64736;50.462;4.850;2023-04-03T17:12:11;8.91;44.66
76040;SHT30;64736;50.462;4.850;2023-04-03T17:14:37;8.98;44.76
76040;SHT30;64736;50.462;4.850;2023-04-03T17:17:03;8.88;44.70
76040;SHT30;64736;50.462;4.850;2023-04-03T17:19:29;8.92;44.95
76040;SHT30;64736;50.462;4.850;2023-04-03T17:21:56;8.98;44.79
76040;SHT30;64736;50.462;4.850;2023-04-03T17:24:22;8.87;45.40
76040;SHT30;64736;50.462;4.850;2023-04-03T17:26:48;8.81;45.60
76040;SHT30;64736;50.462;4.850;2023-04-03T17:29:14;8.80;46.06
76040;SHT30;64736;50.462;4.850;2023-04-03T17:31:40;8.78;46.35
76040;SHT30;64736;50.462;4.850;2023-04-03T17:34:06;8.71;46.13
76040;SHT30;64736;50.462;4.850;2023-04-03T17:36:33;8.64;45.48
76040;SHT30;64736;50.462;4.850;2023-04-03T17:38:59;8.68;45.21
76040;SHT30;64736;50.462;4.850;2023-04-03T17:41:25;8.54;45.66
76040;SHT30;64736;50.462;4.850;2023-04-03T17:43:51;8.56;45.71
76040;SHT30;64736;50.462;4.850;2023-04-03T17:46:21;8.47;45.08